Time,TemperatureF,DewpointF,PressureIn,WindDirection,WindDirectionDegrees,WindSpeedMPH,WindSpeedGustMPH,Humidity,HourlyPrecipIn,Conditions,Clouds,dailyrainin,SoftwareType,DateUTC
2013-03-12 00:00:00,41.5,41.3,29.92,NE,45,5.8,5.8,99,0.00,RA,,0.00,WeatherDisplay:10.37,2013-03-12 04:00:00,
2013-03-12 00:05:00,41.5,41.3,29.92,NE,45,5.8,5.8,99,0.00,RA,,0.00,WeatherDisplay:10.37,2013-03-12 04:05:00,
2013-03-12 00:10:00,41.9,41.6,29.93,NE,45,5.8,0.0,99,0.00,CLR,,0.00,WeatherDisplay:10.37,2013-03-12 04:10:00,
2013-03-12 00:15:00,41.9,41.6,29.93,NE,45,2.3,2.3,99,0.00,CLR,,0.00,WeatherDisplay:10.37,2013-03-12 04:15:00,
2013-03-12 00:20:00,41.9,41.6,29.93,North,0,0.0,2.7,99,0.00,CLR,,0.00,WeatherDisplay:10.37,2013-03-12 04:20:00,
2013-03-12 00:25:00,41.7,41.5,29.93,NNW,338,0.0,0.0,99,0.00,CLR,,0.00,WeatherDisplay:10.37,2013-03-12 04:25:00,
2013-03-12 00:30:00,41.7,41.5,29.93,North,0,0.0,0.0,99,0.00,CLR,,0.00,WeatherDisplay:10.37,2013-03-12 04:30:00,
2013-03-12 00:35:00,41.4,41.1,29.93,NW,315,4.6,0.0,99,0.00,CLR,,0.00,WeatherDisplay:10.37,2013-03-12 04:35:00,
2013-03-12 00:40:00,41.0,40.7,29.93,SW,225,2.3,0.0,99,0.00,CLR,,0.00,WeatherDisplay:10.37,2013-03-12 04:40:00,
2013-03-12 00:45:00,41.0,40.5,29.94,NW,315,1.1,0.0,98,0.00,CLR,,0.00,WeatherDisplay:10.37,2013-03-12 04:45:00,
2013-03-12 00:50:00,40.6,40.4,29.94,West,270,0.0,0.0,99,0.00,CLR,,0.00,WeatherDisplay:10.37,2013-03-12 04:50:00,
2013-03-12 00:55:00,40.5,39.9,29.94,West,270,1.1,0.0,98,0.00,CLR,,0.00,WeatherDisplay:10.37,2013-03-12 04:55:00,
2013-03-12 01:00:00,40.3,39.8,29.94,West,270,0.0,0.0,98,0.00,CLR,,0.00,WeatherDisplay:10.37,2013-03-12 05:00:00,
2013-03-12 01:05:00,39.7,39.2,29.94,NW,315,1.1,0.0,98,0.00,CLR,,0.00,WeatherDisplay:10.37,2013-03-12 05:05:00,
2013-03-12 01:10:00,39.4,38.9,29.94,NW,315,0.0,0.0,98,0.00,CLR,,0.00,WeatherDisplay:10.37,2013-03-12 05:10:00,
2013-03-12 01:15:00,39.2,38.7,29.93,West,270,0.0,0.0,98,0.00,CLR,,0.00,WeatherDisplay:10.37,2013-03-12 05:15:00,
2013-03-12 01:20:00,38.8,38.6,29.93,West,270,0.0,0.0,99,0.00,CLR,,0.00,WeatherDisplay:10.37,2013-03-12 05:20:00,
2013-03-12 01:25:00,38.7,38.4,29.93,SW,225,0.0,0.0,99,0.00,CLR,,0.00,WeatherDisplay:10.37,2013-03-12 05:25:00,
2013-03-12 01:30:00,38.7,38.4,29.94,NW,315,0.0,0.0,99,0.00,CLR,,0.00,WeatherDisplay:10.37,2013-03-12 05:30:00,
2013-03-12 01:35:00,38.5,38.2,29.93,NW,315,0.0,0.0,99,0.00,CLR,,0.00,WeatherDisplay:10.37,2013-03-12 05:35:00,
2013-03-12 01:40:00,38.5,38.2,29.94,NW,315,0.0,0.0,99,0.00,CLR,,0.00,WeatherDisplay:10.37,2013-03-12 05:40:00,
2013-03-12 01:45:00,38.7,38.4,29.94,North,0,0.0,0.0,99,0.00,CLR,,0.00,WeatherDisplay:10.37,2013-03-12 05:45:00,
2013-03-12 01:50:00,38.7,38.4,29.94,South,180,0.0,0.0,99,0.00,CLR,,0.00,WeatherDisplay:10.37,2013-03-12 05:50:00,
2013-03-12 01:55:00,38.8,38.6,29.94,SE,135,2.3,0.0,99,0.00,CLR,,0.00,WeatherDisplay:10.37,2013-03-12 05:55:00,
2013-03-12 02:00:00,38.8,38.6,29.94,NW,315,1.1,0.0,99,0.00,CLR,,0.00,WeatherDisplay:10.37,2013-03-12 06:00:00,
2013-03-12 02:05:00,38.8,38.6,29.94,NW,315,0.0,0.0,99,0.00,CLR,,0.00,WeatherDisplay:10.37,2013-03-12 06:05:00,
2013-03-12 02:10:00,39.2,38.9,29.94,North,0,0.0,0.0,99,0.00,CLR,,0.00,WeatherDisplay:10.37,2013-03-12 06:10:00,
2013-03-12 02:15:00,39.6,39.3,29.95,North,0,0.0,0.0,99,0.00,CLR,,0.00,WeatherDisplay:10.37,2013-03-12 06:15:00,
2013-03-12 02:20:00,39.7,39.5,29.94,North,0,0.0,0.0,99,0.00,CLR,,0.00,WeatherDisplay:10.37,2013-03-12 06:20:00,
2013-03-12 02:25:00,39.9,39.7,29.95,North,0,2.3,4.4,99,0.00,CLR,,0.00,WeatherDisplay:10.37,2013-03-12 06:25:00,
2013-03-12 02:30:00,40.1,39.8,29.95,North,0,1.1,0.0,99,0.00,CLR,,0.00,WeatherDisplay:10.37,2013-03-12 06:30:00,
2013-03-12 02:35:00,40.3,40.0,29.95,North,0,0.0,0.0,99,0.00,CLR,,0.00,WeatherDisplay:10.37,2013-03-12 06:35:00,
2013-03-12 02:40:00,40.3,40.0,29.95,North,0,2.3,0.0,99,0.00,CLR,,0.00,WeatherDisplay:10.37,2013-03-12 06:40:00,
2013-03-12 02:45:00,40.3,40.0,29.95,North,0,4.6,4.6,99,0.00,CLR,,0.00,WeatherDisplay:10.37,2013-03-12 06:45:00,
2013-03-12 02:50:00,40.3,39.8,29.95,NE,45,6.9,6.9,98,0.00,CLR,,0.00,WeatherDisplay:10.37,2013-03-12 06:50:00,
2013-03-12 02:55:00,40.6,39.9,29.95,NW,315,4.6,4.6,97,0.00,CLR,,0.00,WeatherDisplay:10.37,2013-03-12 06:55:00,
2013-03-12 03:00:00,40.5,39.4,29.95,North,0,5.8,0.0,96,0.00,CLR,,0.00,WeatherDisplay:10.37,2013-03-12 07:00:00,
2013-03-12 03:05:00,40.5,39.1,29.95,North,0,2.3,2.3,95,0.00,CLR,,0.00,WeatherDisplay:10.37,2013-03-12 07:05:00,
2013-03-12 03:10:00,40.3,38.7,29.95,NW,315,5.8,0.0,94,0.00,CLR,,0.00,WeatherDisplay:10.37,2013-03-12 07:10:00,
2013-03-12 03:15:00,40.1,38.5,29.95,NW,315,2.3,0.0,94,0.00,CLR,,0.00,WeatherDisplay:10.37,2013-03-12 07:15:00,
2013-03-12 03:20:00,39.9,38.3,29.95,NW,315,2.3,2.3,94,0.00,CLR,,0.00,WeatherDisplay:10.37,2013-03-12 07:20:00,
2013-03-12 03:25:00,39.7,38.2,29.95,West,270,0.0,0.0,94,0.00,CLR,,0.00,WeatherDisplay:10.37,2013-03-12 07:25:00,
2013-03-12 03:30:00,39.7,38.2,29.95,West,270,1.1,0.0,94,0.00,CLR,,0.00,WeatherDisplay:10.37,2013-03-12 07:30:00,
2013-03-12 03:35:00,39.7,38.2,29.95,NW,315,1.1,0.0,94,0.00,CLR,,0.00,WeatherDisplay:10.37,2013-03-12 07:35:00,
2013-03-12 03:40:00,39.6,38.0,29.95,NW,315,0.0,0.0,94,0.00,CLR,,0.00,WeatherDisplay:10.37,2013-03-12 07:40:00,
2013-03-12 03:45:00,39.6,38.2,29.95,North,0,0.0,0.0,95,0.00,CLR,,0.00,WeatherDisplay:10.37,2013-03-12 07:45:00,
2013-03-12 03:50:00,39.6,38.2,29.95,NW,315,4.6,0.0,95,0.00,CLR,,0.00,WeatherDisplay:10.37,2013-03-12 07:50:00,
2013-03-12 03:55:00,39.6,38.2,29.96,North,0,1.1,0.0,95,0.00,CLR,,0.00,WeatherDisplay:10.37,2013-03-12 07:55:00,
2013-03-12 04:00:00,39.6,38.2,29.95,North,0,0.0,0.0,95,0.00,CLR,,0.00,WeatherDisplay:10.37,2013-03-12 08:00:00,
2013-03-12 04:05:00,39.6,38.2,29.95,North,0,0.0,0.0,95,0.00,CLR,,0.00,WeatherDisplay:10.37,2013-03-12 08:05:00,
2013-03-12 04:10:00,39.6,38.2,29.96,South,180,5.8,5.8,95,0.00,CLR,,0.00,WeatherDisplay:10.37,2013-03-12 08:10:00,
2013-03-12 04:15:00,39.6,38.0,29.95,NW,315,5.8,8.4,94,0.00,CLR,,0.00,WeatherDisplay:10.37,2013-03-12 08:15:00,
2013-03-12 04:20:00,39.4,37.2,29.95,NW,315,6.9,6.9,92,0.00,CLR,,0.00,WeatherDisplay:10.37,2013-03-12 08:20:00,
2013-03-12 04:25:00,39.4,36.7,29.95,North,0,4.6,4.6,90,0.00,CLR,,0.00,WeatherDisplay:10.37,2013-03-12 08:25:00,
2013-03-12 04:30:00,39.2,36.2,29.95,NW,315,5.8,5.8,89,0.00,CLR,,0.00,WeatherDisplay:10.37,2013-03-12 08:30:00,
2013-03-12 04:35:00,39.2,35.9,29.95,North,0,6.9,6.9,88,0.00,CLR,,0.00,WeatherDisplay:10.37,2013-03-12 08:35:00,
2013-03-12 04:40:00,39.2,35.9,29.95,NNE,22,2.3,2.3,88,0.00,CLR,,0.00,WeatherDisplay:10.37,2013-03-12 08:40:00,
2013-03-12 04:45:00,39.2,35.9,29.95,North,0,2.3,0.0,88,0.00,CLR,,0.00,WeatherDisplay:10.37,2013-03-12 08:45:00,
2013-03-12 04:50:00,39.2,36.2,29.95,West,270,1.1,0.0,89,0.00,CLR,,0.00,WeatherDisplay:10.37,2013-03-12 08:50:00,
2013-03-12 04:55:00,39.2,36.2,29.95,West,270,0.0,0.0,89,0.00,CLR,,0.00,WeatherDisplay:10.37,2013-03-12 08:55:00,
2013-03-12 05:00:00,39.2,36.2,29.95,North,0,0.0,0.0,89,0.00,CLR,,0.00,WeatherDisplay:10.37,2013-03-12 09:00:00,
2013-03-12 05:05:00,39.2,36.2,29.95,North,0,1.1,0.0,89,0.00,CLR,,0.00,WeatherDisplay:10.37,2013-03-12 09:05:00,
2013-03-12 05:10:00,39.0,36.3,29.95,North,0,0.0,0.0,90,0.00,CLR,,0.00,WeatherDisplay:10.37,2013-03-12 09:10:00,
2013-03-12 05:15:00,39.0,36.6,29.95,West,270,1.1,0.0,91,0.00,CLR,,0.00,WeatherDisplay:10.37,2013-03-12 09:15:00,
2013-03-12 05:20:00,39.0,36.6,29.96,NNW,338,0.0,0.0,91,0.00,CLR,,0.00,WeatherDisplay:10.37,2013-03-12 09:20:00,
2013-03-12 05:25:00,39.0,36.9,29.96,NW,315,0.0,0.0,92,0.00,CLR,,0.00,WeatherDisplay:10.37,2013-03-12 09:25:00,
2013-03-12 05:30:00,39.0,36.9,29.96,NW,315,0.0,0.0,92,0.00,CLR,,0.00,WeatherDisplay:10.37,2013-03-12 09:30:00,
2013-03-12 05:35:00,39.0,36.9,29.96,NW,315,2.3,0.0,92,0.00,CLR,,0.00,WeatherDisplay:10.37,2013-03-12 09:35:00,
2013-03-12 05:40:00,39.0,36.9,29.96,North,0,5.8,5.8,92,0.00,CLR,,0.00,WeatherDisplay:10.37,2013-03-12 09:40:00,
2013-03-12 05:45:00,39.0,36.9,29.96,North,0,0.0,0.0,92,0.00,CLR,,0.00,WeatherDisplay:10.37,2013-03-12 09:45:00,
2013-03-12 05:50:00,39.0,36.9,29.96,North,0,0.0,0.0,92,0.00,CLR,,0.00,WeatherDisplay:10.37,2013-03-12 09:50:00,
2013-03-12 05:55:00,39.0,37.2,29.97,NW,315,0.0,0.0,93,0.00,CLR,,0.00,WeatherDisplay:10.37,2013-03-12 09:55:00,
2013-03-12 06:00:00,39.0,37.2,29.97,NW,315,2.3,2.3,93,0.00,CLR,,0.00,WeatherDisplay:10.37,2013-03-12 10:00:00,
2013-03-12 06:05:00,39.0,37.2,29.97,NW,315,2.3,2.3,93,0.00,CLR,,0.00,WeatherDisplay:10.37,2013-03-12 10:05:00,
2013-03-12 06:10:00,39.2,36.5,29.97,NW,315,4.6,0.0,90,0.00,CLR,,0.00,WeatherDisplay:10.37,2013-03-12 10:10:00,
2013-03-12 06:15:00,39.2,36.5,29.97,North,0,1.1,0.0,90,0.00,CLR,,0.00,WeatherDisplay:10.37,2013-03-12 10:15:00,
2013-03-12 06:20:00,39.2,36.5,29.98,North,0,2.3,2.3,90,0.00,CLR,,0.00,WeatherDisplay:10.37,2013-03-12 10:20:00,
2013-03-12 06:25:00,39.2,36.5,29.98,NW,315,2.3,0.0,90,0.00,CLR,,0.00,WeatherDisplay:10.37,2013-03-12 10:25:00,
2013-03-12 06:30:00,39.2,36.5,29.99,NW,315,5.8,0.0,90,0.00,CLR,,0.00,WeatherDisplay:10.37,2013-03-12 10:30:00,
2013-03-12 06:35:00,39.2,36.5,29.99,North,0,1.1,0.0,90,0.00,CLR,,0.00,WeatherDisplay:10.37,2013-03-12 10:35:00,
2013-03-12 06:40:00,39.2,36.5,29.98,North,0,4.6,0.0,90,0.00,CLR,,0.00,WeatherDisplay:10.37,2013-03-12 10:40:00,
2013-03-12 06:45:00,39.2,36.2,29.99,NNW,338,1.1,1.3,89,0.00,CLR,,0.00,WeatherDisplay:10.37,2013-03-12 10:45:00,
2013-03-12 06:50:00,39.0,36.3,29.99,North,0,11.5,11.5,90,0.00,CLR,,0.00,WeatherDisplay:10.37,2013-03-12 10:50:00,
2013-03-12 06:55:00,39.2,35.9,30.00,North,0,2.3,2.3,88,0.00,CLR,,0.00,WeatherDisplay:10.37,2013-03-12 10:55:00,
2013-03-12 07:00:00,39.0,36.1,29.99,NW,315,5.8,5.8,89,0.00,CLR,,0.00,WeatherDisplay:10.37,2013-03-12 11:00:00,
2013-03-12 07:05:00,39.0,36.1,30.00,North,0,4.6,4.6,89,0.00,CLR,,0.00,WeatherDisplay:10.37,2013-03-12 11:05:00,
2013-03-12 07:10:00,39.0,36.1,29.99,North,0,0.0,0.0,89,0.00,CLR,,0.00,WeatherDisplay:10.37,2013-03-12 11:10:00,
2013-03-12 07:15:00,39.0,36.1,30.00,North,0,4.6,0.0,89,0.00,CLR,,0.00,WeatherDisplay:10.37,2013-03-12 11:15:00,
2013-03-12 07:20:00,38.8,35.6,30.00,North,0,4.6,4.6,88,0.00,CLR,,0.00,WeatherDisplay:10.37,2013-03-12 11:20:00,
2013-03-12 07:25:00,38.8,35.6,30.00,NW,315,2.3,2.3,88,0.00,CLR,,0.00,WeatherDisplay:10.37,2013-03-12 11:25:00,
2013-03-12 07:30:00,38.8,35.9,30.00,North,0,4.6,4.6,89,0.00,CLR,,0.00,WeatherDisplay:10.37,2013-03-12 11:30:00,
2013-03-12 07:35:00,38.7,35.7,30.00,NE,45,6.9,6.9,89,0.00,CLR,,0.00,WeatherDisplay:10.37,2013-03-12 11:35:00,
2013-03-12 07:40:00,38.7,35.4,30.00,North,0,4.6,4.6,88,0.00,CLR,,0.00,WeatherDisplay:10.37,2013-03-12 11:40:00,
2013-03-12 07:45:00,38.7,35.4,30.00,North,0,2.3,0.0,88,0.00,CLR,,0.00,WeatherDisplay:10.37,2013-03-12 11:45:00,
2013-03-12 07:50:00,38.7,35.4,30.00,North,0,4.6,4.6,88,0.00,CLR,,0.00,WeatherDisplay:10.37,2013-03-12 11:50:00,
2013-03-12 07:55:00,38.7,35.4,30.01,NE,45,6.9,6.9,88,0.00,CLR,,0.00,WeatherDisplay:10.37,2013-03-12 11:55:00,
2013-03-12 08:00:00,38.7,35.1,30.01,NW,315,8.1,8.1,87,0.00,CLR,,0.00,WeatherDisplay:10.37,2013-03-12 12:00:00,
2013-03-12 08:05:00,38.7,35.1,30.01,North,0,5.8,5.8,87,0.00,CLR,,0.00,WeatherDisplay:10.37,2013-03-12 12:05:00,
2013-03-12 08:10:00,38.5,34.9,30.01,North,0,8.1,8.1,87,0.00,CLR,,0.00,WeatherDisplay:10.37,2013-03-12 12:10:00,
2013-03-12 08:15:00,38.5,34.9,30.01,NW,315,4.6,0.0,87,0.00,CLR,,0.00,WeatherDisplay:10.37,2013-03-12 12:15:00,
2013-03-12 08:20:00,38.5,34.9,30.01,North,0,4.6,4.6,87,0.00,CLR,,0.00,WeatherDisplay:10.37,2013-03-12 12:20:00,
2013-03-12 08:25:00,38.3,34.8,30.00,North,0,5.8,5.8,87,0.00,CLR,,0.00,WeatherDisplay:10.37,2013-03-12 12:25:00,
2013-03-12 08:30:00,38.3,34.8,30.01,NW,315,6.9,6.9,87,0.00,CLR,,0.00,WeatherDisplay:10.37,2013-03-12 12:30:00,
2013-03-12 08:35:00,38.3,34.8,30.02,North,0,7.0,7.0,87,0.00,CLR,,0.00,WeatherDisplay:10.37,2013-03-12 12:35:00,
2013-03-12 08:40:00,38.5,34.9,30.01,North,0,4.6,4.6,87,0.00,CLR,,0.00,WeatherDisplay:10.37,2013-03-12 12:40:00,
2013-03-12 08:45:00,38.5,34.7,30.02,NNW,338,5.8,5.8,86,0.00,CLR,,0.00,WeatherDisplay:10.37,2013-03-12 12:45:00,
2013-03-12 08:50:00,38.5,34.9,30.02,NW,315,2.3,2.3,87,0.00,CLR,,0.00,WeatherDisplay:10.37,2013-03-12 12:50:00,
2013-03-12 08:55:00,38.5,34.9,30.03,North,0,2.3,2.3,87,0.00,CLR,,0.00,WeatherDisplay:10.37,2013-03-12 12:55:00,
2013-03-12 09:00:00,38.5,34.9,30.03,North,0,5.8,5.8,87,0.00,CLR,,0.00,WeatherDisplay:10.37,2013-03-12 13:00:00,
2013-03-12 09:05:00,38.5,34.9,30.03,North,0,5.8,5.8,87,0.00,CLR,,0.00,WeatherDisplay:10.37,2013-03-12 13:05:00,
2013-03-12 09:10:00,38.7,35.1,30.03,NW,315,4.6,4.6,87,0.00,CLR,,0.00,WeatherDisplay:10.37,2013-03-12 13:10:00,
2013-03-12 09:15:00,38.7,34.8,30.04,North,0,8.1,8.1,86,0.00,CLR,,0.00,WeatherDisplay:10.37,2013-03-12 13:15:00,
2013-03-12 09:20:00,38.8,35.0,30.04,North,0,8.1,8.1,86,0.01,RA,,0.01,WeatherDisplay:10.37,2013-03-12 13:20:00,
2013-03-12 09:25:00,38.8,35.0,30.04,North,0,6.9,6.9,86,0.01,RA,,0.01,WeatherDisplay:10.37,2013-03-12 13:25:00,
2013-03-12 09:30:00,39.0,35.2,30.04,North,0,8.4,8.4,86,0.01,,,0.01,WeatherDisplay:10.37,2013-03-12 13:30:00,
2013-03-12 09:35:00,39.2,35.1,30.04,NNE,22,2.3,2.3,85,0.01,CLR,,0.01,WeatherDisplay:10.37,2013-03-12 13:35:00,
2013-03-12 09:40:00,39.4,35.2,30.05,NW,315,5.8,0.0,85,0.01,CLR,,0.01,WeatherDisplay:10.37,2013-03-12 13:40:00,
2013-03-12 09:45:00,39.6,35.4,30.05,West,270,8.1,8.1,85,0.01,CLR,,0.01,WeatherDisplay:10.37,2013-03-12 13:45:00,
2013-03-12 09:50:00,39.6,35.1,30.05,NE,45,10.4,10.4,84,0.01,CLR,,0.01,WeatherDisplay:10.37,2013-03-12 13:50:00,
2013-03-12 09:55:00,39.4,34.9,30.06,North,0,6.9,6.9,84,0.01,CLR,,0.01,WeatherDisplay:10.37,2013-03-12 13:55:00,
2013-03-12 10:00:00,39.4,34.9,30.06,NE,45,8.1,8.1,84,0.01,CLR,,0.01,WeatherDisplay:10.37,2013-03-12 14:00:00,
2013-03-12 10:05:00,39.4,34.9,30.06,North,0,6.9,6.9,84,0.01,CLR,,0.01,WeatherDisplay:10.37,2013-03-12 14:05:00,
2013-03-12 10:10:00,39.7,35.3,30.06,NW,315,5.8,5.8,84,0.01,CLR,,0.01,WeatherDisplay:10.37,2013-03-12 14:10:00,
2013-03-12 10:15:00,39.9,35.5,30.06,NW,315,8.1,8.1,84,0.01,CLR,,0.01,WeatherDisplay:10.37,2013-03-12 14:15:00,
2013-03-12 10:20:00,40.3,36.1,30.06,SW,225,4.6,4.6,85,0.00,CLR,,0.01,WeatherDisplay:10.37,2013-03-12 14:20:00,
2013-03-12 10:25:00,40.5,36.3,30.07,North,0,4.6,4.6,85,0.00,CLR,,0.01,WeatherDisplay:10.37,2013-03-12 14:25:00,
2013-03-12 10:30:00,40.6,36.5,30.06,North,0,5.8,5.8,85,0.00,CLR,,0.01,WeatherDisplay:10.37,2013-03-12 14:30:00,
2013-03-12 10:35:00,40.6,36.2,30.07,NW,315,5.8,5.8,84,0.00,CLR,,0.01,WeatherDisplay:10.37,2013-03-12 14:35:00,
2013-03-12 10:40:00,40.8,36.4,30.07,North,0,2.3,4.4,84,0.00,CLR,,0.01,WeatherDisplay:10.37,2013-03-12 14:40:00,
2013-03-12 10:45:00,40.8,36.1,30.06,North,0,6.9,6.9,83,0.00,CLR,,0.01,WeatherDisplay:10.37,2013-03-12 14:45:00,
2013-03-12 10:50:00,41.0,36.2,30.06,NE,45,4.6,4.6,83,0.00,CLR,,0.01,WeatherDisplay:10.37,2013-03-12 14:50:00,
2013-03-12 10:55:00,41.2,36.4,30.06,NE,45,2.3,5.7,83,0.00,CLR,,0.01,WeatherDisplay:10.37,2013-03-12 14:55:00,
2013-03-12 11:00:00,41.5,36.5,30.06,NW,315,5.8,5.8,82,0.00,CLR,,0.01,WeatherDisplay:10.37,2013-03-12 15:00:00,
2013-03-12 11:05:00,41.7,36.6,30.06,North,0,5.8,0.0,82,0.00,CLR,,0.01,WeatherDisplay:10.37,2013-03-12 15:05:00,
2013-03-12 11:10:00,42.1,37.0,30.07,East,90,11.4,11.4,82,0.00,CLR,,0.01,WeatherDisplay:10.37,2013-03-12 15:10:00,
2013-03-12 11:15:00,42.1,36.4,30.06,North,0,6.9,6.9,80,0.00,CLR,,0.01,WeatherDisplay:10.37,2013-03-12 15:15:00,
2013-03-12 11:20:00,42.3,36.5,30.06,North,0,6.9,6.9,80,0.00,CLR,,0.01,WeatherDisplay:10.37,2013-03-12 15:20:00,
2013-03-12 11:25:00,42.1,36.4,30.06,West,270,6.9,6.9,80,0.00,CLR,,0.01,WeatherDisplay:10.37,2013-03-12 15:25:00,
2013-03-12 11:30:00,42.3,36.5,30.06,NE,45,5.8,5.8,80,0.00,CLR,,0.01,WeatherDisplay:10.37,2013-03-12 15:30:00,
2013-03-12 11:35:00,42.6,36.6,30.06,NW,315,6.9,6.9,79,0.00,CLR,,0.01,WeatherDisplay:10.37,2013-03-12 15:35:00,
2013-03-12 11:40:00,43.5,37.1,30.07,North,0,2.3,0.0,78,0.00,CLR,,0.01,WeatherDisplay:10.37,2013-03-12 15:40:00,
2013-03-12 11:45:00,44.8,38.0,30.08,NW,315,6.9,6.9,77,0.00,CLR,,0.01,WeatherDisplay:10.37,2013-03-12 15:45:00,
2013-03-12 11:50:00,45.5,38.0,30.08,NW,315,8.1,8.1,75,0.00,CLR,,0.01,WeatherDisplay:10.37,2013-03-12 15:50:00,
2013-03-12 11:55:00,45.0,36.8,30.08,North,0,8.1,8.1,73,0.00,CLR,,0.01,WeatherDisplay:10.37,2013-03-12 15:55:00,
2013-03-12 12:00:00,44.8,36.7,30.08,NE,45,4.6,4.6,73,0.00,CLR,,0.01,WeatherDisplay:10.37,2013-03-12 16:00:00,
2013-03-12 12:05:00,45.7,37.5,30.08,North,0,8.1,8.1,73,0.00,CLR,,0.01,WeatherDisplay:10.37,2013-03-12 16:05:00,
2013-03-12 12:10:00,45.9,37.3,30.08,North,0,8.1,8.1,72,0.00,CLR,,0.01,WeatherDisplay:10.37,2013-03-12 16:10:00,
2013-03-12 12:15:00,46.4,37.9,30.07,SE,135,8.1,8.1,72,0.00,CLR,,0.01,WeatherDisplay:10.37,2013-03-12 16:15:00,
2013-03-12 12:20:00,46.8,37.9,30.08,NE,45,6.9,6.9,71,0.00,CLR,,0.01,WeatherDisplay:10.37,2013-03-12 16:20:00,
2013-03-12 12:25:00,47.3,38.4,30.08,SW,225,8.1,8.1,71,0.00,CLR,,0.01,WeatherDisplay:10.37,2013-03-12 16:25:00,
2013-03-12 12:30:00,48.2,38.1,30.08,NW,315,16.1,16.1,68,0.00,CLR,,0.01,WeatherDisplay:10.37,2013-03-12 16:30:00,
2013-03-12 12:35:00,48.9,38.8,30.08,NE,45,12.7,12.7,68,0.00,CLR,,0.01,WeatherDisplay:10.37,2013-03-12 16:35:00,
2013-03-12 12:40:00,48.4,37.5,30.08,North,0,8.1,8.1,66,0.00,CLR,,0.01,WeatherDisplay:10.37,2013-03-12 16:40:00,
2013-03-12 12:45:00,48.7,38.6,30.07,North,0,6.9,6.9,68,0.00,CLR,,0.01,WeatherDisplay:10.37,2013-03-12 16:45:00,
2013-03-12 12:50:00,49.5,38.6,30.08,North,0,13.8,13.8,66,0.00,CLR,,0.01,WeatherDisplay:10.37,2013-03-12 16:50:00,
2013-03-12 12:55:00,49.5,38.6,30.08,NE,45,6.9,6.9,66,0.00,CLR,,0.01,WeatherDisplay:10.37,2013-03-12 16:55:00,
2013-03-12 13:00:00,50.4,39.0,30.08,North,0,5.8,5.8,65,0.00,CLR,,0.01,WeatherDisplay:10.37,2013-03-12 17:00:00,
2013-03-12 13:05:00,51.1,39.7,30.08,South,180,6.9,6.9,65,0.00,CLR,,0.01,WeatherDisplay:10.37,2013-03-12 17:05:00,
2013-03-12 13:10:00,50.9,38.7,30.08,North,0,11.5,11.5,63,0.00,CLR,,0.01,WeatherDisplay:10.37,2013-03-12 17:10:00,
2013-03-12 13:15:00,51.6,39.8,30.08,North,0,10.4,10.4,64,0.00,CLR,,0.01,WeatherDisplay:10.37,2013-03-12 17:15:00,
2013-03-12 13:20:00,52.2,39.5,30.08,North,0,8.1,8.1,62,0.00,CLR,,0.01,WeatherDisplay:10.37,2013-03-12 17:20:00,
2013-03-12 13:25:00,52.7,40.0,30.08,South,180,8.1,8.1,62,0.00,CLR,,0.01,WeatherDisplay:10.37,2013-03-12 17:25:00,
2013-03-12 13:30:00,53.2,40.5,30.08,NE,45,5.8,5.8,62,0.00,CLR,,0.01,WeatherDisplay:10.37,2013-03-12 17:30:00,
2013-03-12 13:35:00,52.9,38.9,30.08,NW,315,13.8,13.8,59,0.00,CLR,,0.01,WeatherDisplay:10.37,2013-03-12 17:35:00,
2013-03-12 13:40:00,52.9,38.9,30.08,NW,315,6.9,6.9,59,0.00,CLR,,0.01,WeatherDisplay:10.37,2013-03-12 17:40:00,
2013-03-12 13:45:00,53.2,38.8,30.07,East,90,4.6,4.6,58,0.00,CLR,,0.01,WeatherDisplay:10.37,2013-03-12 17:45:00,
2013-03-12 13:50:00,53.4,39.0,30.07,North,0,12.7,12.7,58,0.00,CLR,,0.01,WeatherDisplay:10.37,2013-03-12 17:50:00,
2013-03-12 13:55:00,52.9,38.1,30.07,South,180,8.1,8.1,57,0.00,CLR,,0.01,WeatherDisplay:10.37,2013-03-12 17:55:00,
2013-03-12 14:00:00,53.2,40.1,30.07,SW,225,4.6,4.6,61,0.00,CLR,,0.01,WeatherDisplay:10.37,2013-03-12 18:00:00,
2013-03-12 14:05:00,54.0,38.6,30.06,North,0,6.9,6.9,56,0.00,CLR,,0.01,WeatherDisplay:10.37,2013-03-12 18:05:00,
2013-03-12 14:10:00,53.8,38.0,30.07,NE,45,6.9,6.9,55,0.00,CLR,,0.01,WeatherDisplay:10.37,2013-03-12 18:10:00,
2013-03-12 14:15:00,53.8,38.9,30.06,NE,45,8.1,8.1,57,0.00,CLR,,0.01,WeatherDisplay:10.37,2013-03-12 18:15:00,
2013-03-12 14:20:00,54.0,39.1,30.06,SW,225,2.3,4.4,57,0.00,CLR,,0.01,WeatherDisplay:10.37,2013-03-12 18:20:00,
2013-03-12 14:25:00,54.3,38.9,30.05,ENE,68,8.1,8.1,56,0.00,CLR,,0.01,WeatherDisplay:10.37,2013-03-12 18:25:00,
2013-03-12 14:30:00,54.1,39.7,30.05,NW,315,6.9,6.9,58,0.00,CLR,,0.01,WeatherDisplay:10.37,2013-03-12 18:30:00,
2013-03-12 14:35:00,54.0,38.6,30.05,North,0,6.9,6.9,56,0.00,CLR,,0.01,WeatherDisplay:10.37,2013-03-12 18:35:00,
2013-03-12 14:40:00,54.0,38.6,30.04,SW,225,10.4,10.4,56,0.00,CLR,,0.01,WeatherDisplay:10.37,2013-03-12 18:40:00,
2013-03-12 14:45:00,53.6,37.8,30.04,North,0,6.9,6.9,55,0.00,CLR,,0.01,WeatherDisplay:10.37,2013-03-12 18:45:00,
2013-03-12 14:50:00,53.8,38.9,30.05,North,0,10.4,10.4,57,0.00,CLR,,0.01,WeatherDisplay:10.37,2013-03-12 18:50:00,
2013-03-12 14:55:00,54.1,38.8,30.05,SSW,202,4.6,4.6,56,0.00,CLR,,0.01,WeatherDisplay:10.37,2013-03-12 18:55:00,
2013-03-12 15:00:00,54.7,39.7,30.04,WNW,292,6.9,6.9,57,0.00,CLR,,0.01,WeatherDisplay:10.37,2013-03-12 19:00:00,
2013-03-12 15:05:00,55.2,39.3,30.04,West,270,4.6,4.6,55,0.00,CLR,,0.01,WeatherDisplay:10.37,2013-03-12 19:05:00,
2013-03-12 15:10:00,55.0,39.2,30.04,West,270,11.5,11.5,55,0.00,CLR,,0.01,WeatherDisplay:10.37,2013-03-12 19:10:00,
2013-03-12 15:15:00,55.6,40.1,30.03,NW,315,8.1,8.1,56,0.00,CLR,,0.01,WeatherDisplay:10.37,2013-03-12 19:15:00,
2013-03-12 15:20:00,56.1,40.6,30.03,SW,225,10.4,10.4,56,0.00,CLR,,0.01,WeatherDisplay:10.37,2013-03-12 19:20:00,
2013-03-12 15:25:00,56.3,40.3,30.03,North,0,5.8,7.0,55,0.00,CLR,,0.01,WeatherDisplay:10.37,2013-03-12 19:25:00,
2013-03-12 15:30:00,55.8,39.8,30.03,South,180,8.1,8.1,55,0.00,CLR,,0.01,WeatherDisplay:10.37,2013-03-12 19:30:00,
2013-03-12 15:35:00,56.1,39.7,30.03,West,270,6.9,6.9,54,0.00,CLR,,0.01,WeatherDisplay:10.37,2013-03-12 19:35:00,
2013-03-12 15:40:00,56.7,40.2,30.03,NW,315,11.5,11.5,54,0.00,CLR,,0.01,WeatherDisplay:10.37,2013-03-12 19:40:00,
2013-03-12 15:45:00,56.8,40.4,30.02,SW,225,5.8,5.8,54,0.00,CLR,,0.01,WeatherDisplay:10.37,2013-03-12 19:45:00,
2013-03-12 15:50:00,56.8,39.9,30.02,North,0,10.4,10.4,53,0.00,CLR,,0.01,WeatherDisplay:10.37,2013-03-12 19:50:00,
2013-03-12 15:55:00,56.8,40.4,30.02,NW,315,5.8,5.8,54,0.00,CLR,,0.01,WeatherDisplay:10.37,2013-03-12 19:55:00,
2013-03-12 16:00:00,57.4,39.4,30.02,North,0,11.5,11.5,51,0.00,CLR,,0.01,WeatherDisplay:10.37,2013-03-12 20:00:00,
2013-03-12 16:05:00,57.4,38.9,30.02,North,0,12.7,12.7,50,0.00,CLR,,0.01,WeatherDisplay:10.37,2013-03-12 20:05:00,
2013-03-12 16:10:00,57.4,38.9,30.02,North,0,6.9,6.9,50,0.00,CLR,,0.01,WeatherDisplay:10.37,2013-03-12 20:10:00,
2013-03-12 16:15:00,57.9,40.9,30.02,NW,315,6.9,6.9,53,0.00,CLR,,0.01,WeatherDisplay:10.37,2013-03-12 20:15:00,
2013-03-12 16:20:00,58.8,40.2,30.03,North,0,8.1,8.1,50,0.00,CLR,,0.01,WeatherDisplay:10.37,2013-03-12 20:20:00,
2013-03-12 16:25:00,59.0,39.9,30.03,North,0,6.9,6.9,49,0.00,CLR,,0.01,WeatherDisplay:10.37,2013-03-12 20:25:00,
2013-03-12 16:30:00,59.2,40.0,30.03,SW,225,8.1,8.1,49,0.00,CLR,,0.01,WeatherDisplay:10.37,2013-03-12 20:30:00,
2013-03-12 16:35:00,59.0,38.8,30.03,SW,225,5.8,5.8,47,0.00,CLR,,0.01,WeatherDisplay:10.37,2013-03-12 20:35:00,
2013-03-12 16:40:00,59.2,38.9,30.03,NNE,22,6.9,6.9,47,0.00,CLR,,0.01,WeatherDisplay:10.37,2013-03-12 20:40:00,
2013-03-12 16:45:00,59.4,39.7,30.03,North,0,5.8,5.8,48,0.00,CLR,,0.01,WeatherDisplay:10.37,2013-03-12 20:45:00,
2013-03-12 16:50:00,59.4,38.0,30.03,NW,315,13.8,13.8,45,0.00,CLR,,0.01,WeatherDisplay:10.37,2013-03-12 20:50:00,
2013-03-12 16:55:00,59.2,38.9,30.03,East,90,8.1,10.1,47,0.00,CLR,,0.01,WeatherDisplay:10.37,2013-03-12 20:55:00,
2013-03-12 17:00:00,58.6,38.5,30.03,NE,45,11.5,11.5,47,0.00,CLR,,0.01,WeatherDisplay:10.37,2013-03-12 21:00:00,
2013-03-12 17:05:00,58.5,38.8,30.03,WNW,292,8.1,8.1,48,0.00,CLR,,0.01,WeatherDisplay:10.37,2013-03-12 21:05:00,
2013-03-12 17:10:00,58.5,38.8,30.03,SE,135,8.1,8.1,48,0.00,CLR,,0.01,WeatherDisplay:10.37,2013-03-12 21:10:00,
2013-03-12 17:15:00,58.5,38.3,30.03,NE,45,11.5,11.5,47,0.00,CLR,,0.01,WeatherDisplay:10.37,2013-03-12 21:15:00,
2013-03-12 17:20:00,58.5,38.8,30.04,WNW,292,5.8,0.0,48,0.00,CLR,,0.01,WeatherDisplay:10.37,2013-03-12 21:20:00,
2013-03-12 17:25:00,58.6,40.0,30.04,NE,45,6.9,8.4,50,0.00,CLR,,0.01,WeatherDisplay:10.37,2013-03-12 21:25:00,
2013-03-12 17:30:00,58.6,39.0,30.04,NNE,22,4.6,4.6,48,0.00,CLR,,0.01,WeatherDisplay:10.37,2013-03-12 21:30:00,
2013-03-12 17:36:00,57.9,37.8,30.04,North,0,5.8,5.8,47,0.00,CLR,,0.01,WeatherDisplay:10.37,2013-03-12 21:36:00,
2013-03-12 17:41:00,57.7,38.7,30.04,North,0,11.5,11.5,49,0.00,CLR,,0.01,WeatherDisplay:10.37,2013-03-12 21:41:00,
2013-03-12 17:46:00,57.4,37.3,30.04,NE,45,10.4,10.4,47,0.00,CLR,,0.01,WeatherDisplay:10.37,2013-03-12 21:46:00,
2013-03-12 17:51:00,57.4,38.4,30.04,NE,45,5.8,5.8,49,0.00,CLR,,0.01,WeatherDisplay:10.37,2013-03-12 21:51:00,
2013-03-12 17:56:00,57.4,37.8,30.04,North,0,8.1,8.1,48,0.00,CLR,,0.01,WeatherDisplay:10.37,2013-03-12 21:56:00,
2013-03-12 18:01:00,57.0,38.0,30.04,SW,225,4.6,4.6,49,0.00,CLR,,0.01,WeatherDisplay:10.37,2013-03-12 22:01:00,
2013-03-12 18:06:00,56.8,39.4,30.04,West,270,4.6,4.6,52,0.00,CLR,,0.01,WeatherDisplay:10.37,2013-03-12 22:06:00,
2013-03-12 18:11:00,56.8,39.4,30.04,NW,315,10.4,10.4,52,0.00,CLR,,0.01,WeatherDisplay:10.37,2013-03-12 22:11:00,
2013-03-12 18:16:00,56.5,38.1,30.04,North,0,10.4,10.4,50,0.00,CLR,,0.01,WeatherDisplay:10.37,2013-03-12 22:16:00,
2013-03-12 18:21:00,55.9,37.0,30.04,West,270,13.8,13.8,49,0.00,CLR,,0.01,WeatherDisplay:10.37,2013-03-12 22:21:00,
2013-03-12 18:26:00,55.9,38.6,30.04,North,0,5.8,5.8,52,0.00,CLR,,0.01,WeatherDisplay:10.37,2013-03-12 22:26:00,
2013-03-12 18:31:00,56.1,39.2,30.04,West,270,6.9,6.9,53,0.00,CLR,,0.01,WeatherDisplay:10.37,2013-03-12 22:31:00,
2013-03-12 18:36:00,56.1,38.7,30.04,NW,315,8.1,8.1,52,0.00,CLR,,0.01,WeatherDisplay:10.37,2013-03-12 22:36:00,
2013-03-12 18:41:00,55.6,37.2,30.04,NW,315,4.6,0.0,50,0.00,CLR,,0.01,WeatherDisplay:10.37,2013-03-12 22:41:00,
2013-03-12 18:46:00,55.4,37.6,30.04,West,270,4.6,4.6,51,0.00,CLR,,0.01,WeatherDisplay:10.37,2013-03-12 22:46:00,
2013-03-12 18:51:00,55.2,37.9,30.04,North,0,8.1,8.1,52,0.00,CLR,,0.01,WeatherDisplay:10.37,2013-03-12 22:51:00,
2013-03-12 18:56:00,55.0,37.7,30.04,NW,315,5.8,0.0,52,0.00,CLR,,0.01,WeatherDisplay:10.37,2013-03-12 22:56:00,
2013-03-12 19:01:00,54.7,37.9,30.04,WSW,248,4.6,4.6,53,0.00,CLR,,0.01,WeatherDisplay:10.37,2013-03-12 23:01:00,
2013-03-12 19:06:00,54.0,37.2,30.04,NW,315,4.6,4.6,53,0.00,CLR,,0.01,WeatherDisplay:10.37,2013-03-12 23:06:00,
2013-03-12 19:11:00,53.4,37.2,30.04,West,270,6.9,6.9,54,0.00,CLR,,0.01,WeatherDisplay:10.37,2013-03-12 23:11:00,
2013-03-12 19:16:00,53.1,36.4,30.05,North,0,2.3,2.7,53,0.00,CLR,,0.01,WeatherDisplay:10.37,2013-03-12 23:16:00,
2013-03-12 19:21:00,52.7,36.5,30.05,North,0,6.9,6.9,54,0.00,CLR,,0.01,WeatherDisplay:10.37,2013-03-12 23:21:00,
2013-03-12 19:26:00,52.2,36.5,30.05,NW,315,2.3,0.0,55,0.00,CLR,,0.01,WeatherDisplay:10.37,2013-03-12 23:26:00,
2013-03-12 19:31:00,51.8,36.6,30.05,West,270,2.3,0.0,56,0.00,CLR,,0.01,WeatherDisplay:10.37,2013-03-12 23:31:00,
2013-03-12 19:36:00,51.3,37.0,30.06,SW,225,2.3,2.7,58,0.00,CLR,,0.01,WeatherDisplay:10.37,2013-03-12 23:36:00,
2013-03-12 19:42:00,50.9,36.2,30.06,North,0,4.6,4.6,57,0.00,CLR,,0.01,WeatherDisplay:10.37,2013-03-12 23:42:00,
2013-03-12 19:47:00,50.7,36.0,30.06,West,270,2.7,0.0,57,0.00,CLR,,0.01,WeatherDisplay:10.37,2013-03-12 23:47:00,
2013-03-12 19:52:00,50.2,36.0,30.07,West,270,2.3,2.3,58,0.00,CLR,,0.01,WeatherDisplay:10.37,2013-03-12 23:52:00,
2013-03-12 19:57:00,49.6,36.7,30.07,West,270,2.3,2.3,61,0.00,CLR,,0.01,WeatherDisplay:10.37,2013-03-12 23:57:00,
2013-03-12 20:02:00,49.1,36.2,30.07,West,270,0.0,0.0,61,0.00,CLR,,0.01,WeatherDisplay:10.37,2013-03-13 00:02:00,
2013-03-12 20:07:00,48.4,36.4,30.08,SW,225,4.6,4.6,63,0.00,CLR,,0.01,WeatherDisplay:10.37,2013-03-13 00:07:00,
2013-03-12 20:12:00,47.8,36.2,30.08,NW,315,0.0,0.0,64,0.00,CLR,,0.01,WeatherDisplay:10.37,2013-03-13 00:12:00,
2013-03-12 20:17:00,47.5,36.3,30.08,NW,315,0.0,0.0,65,0.00,CLR,,0.01,WeatherDisplay:10.37,2013-03-13 00:17:00,
2013-03-12 20:22:00,46.9,35.8,30.08,SW,225,2.3,0.0,65,0.00,CLR,,0.01,WeatherDisplay:10.37,2013-03-13 00:22:00,
2013-03-12 20:27:00,46.6,35.8,30.08,NW,315,1.1,0.0,66,0.00,CLR,,0.01,WeatherDisplay:10.37,2013-03-13 00:27:00,
2013-03-12 20:32:00,45.9,35.1,30.08,NW,315,0.0,0.0,66,0.00,CLR,,0.01,WeatherDisplay:10.37,2013-03-13 00:32:00,
2013-03-12 20:37:00,45.5,35.2,30.08,NW,315,0.0,0.0,67,0.00,CLR,,0.01,WeatherDisplay:10.37,2013-03-13 00:37:00,
2013-03-12 20:42:00,45.1,35.2,30.08,NW,315,0.0,0.0,68,0.00,CLR,,0.01,WeatherDisplay:10.37,2013-03-13 00:42:00,
2013-03-12 20:47:00,44.6,35.1,30.08,NW,315,0.0,0.0,69,0.00,CLR,,0.01,WeatherDisplay:10.37,2013-03-13 00:47:00,
2013-03-12 20:52:00,44.2,35.4,30.08,SW,225,0.0,0.0,71,0.00,CLR,,0.01,WeatherDisplay:10.37,2013-03-13 00:52:00,
2013-03-12 20:57:00,43.7,35.3,30.08,North,0,0.0,0.0,72,0.00,CLR,,0.01,WeatherDisplay:10.37,2013-03-13 00:57:00,
2013-03-12 21:02:00,43.3,35.3,30.09,North,0,0.0,0.0,73,0.00,CLR,,0.01,WeatherDisplay:10.37,2013-03-13 01:02:00,
2013-03-12 21:07:00,42.8,34.7,30.09,NW,315,0.0,0.0,73,0.00,CLR,,0.01,WeatherDisplay:10.37,2013-03-13 01:07:00,
2013-03-12 21:12:00,42.4,35.4,30.09,NW,315,0.0,0.0,76,0.00,CLR,,0.01,WeatherDisplay:10.37,2013-03-13 01:12:00,
2013-03-12 21:17:00,41.9,35.5,30.09,NW,315,0.0,0.0,78,0.00,CLR,,0.01,WeatherDisplay:10.37,2013-03-13 01:17:00,
2013-03-12 21:22:00,41.5,35.5,30.09,NW,315,0.0,0.0,79,0.00,CLR,,0.01,WeatherDisplay:10.37,2013-03-13 01:22:00,
2013-03-12 21:27:00,41.2,35.5,30.09,NW,315,0.0,0.0,80,0.00,CLR,,0.01,WeatherDisplay:10.37,2013-03-13 01:27:00,
2013-03-12 21:32:00,41.0,35.3,30.10,NW,315,0.0,0.0,80,0.00,CLR,,0.01,WeatherDisplay:10.37,2013-03-13 01:32:00,
2013-03-12 21:37:00,40.5,35.4,30.10,North,0,2.3,0.0,82,0.00,CLR,,0.01,WeatherDisplay:10.37,2013-03-13 01:37:00,
2013-03-12 21:43:00,40.3,35.5,30.10,West,270,0.0,0.0,83,0.00,CLR,,0.01,WeatherDisplay:10.37,2013-03-13 01:43:00,
2013-03-12 21:48:00,40.1,35.4,30.10,West,270,0.0,0.0,83,0.00,CLR,,0.01,WeatherDisplay:10.37,2013-03-13 01:48:00,
2013-03-12 21:53:00,39.7,35.3,30.10,West,270,0.0,0.0,84,0.00,CLR,,0.01,WeatherDisplay:10.37,2013-03-13 01:53:00,
2013-03-12 21:58:00,39.7,35.3,30.10,West,270,0.0,0.0,84,0.00,CLR,,0.01,WeatherDisplay:10.37,2013-03-13 01:58:00,
2013-03-12 22:03:00,39.4,35.2,30.10,West,270,0.0,0.0,85,0.00,CLR,,0.01,WeatherDisplay:10.37,2013-03-13 02:03:00,
2013-03-12 22:08:00,39.2,35.1,30.10,West,270,0.0,0.0,85,0.00,CLR,,0.01,WeatherDisplay:10.37,2013-03-13 02:08:00,
2013-03-12 22:13:00,38.8,35.0,30.10,West,270,0.0,0.0,86,0.00,CLR,,0.01,WeatherDisplay:10.37,2013-03-13 02:13:00,
2013-03-12 22:18:00,38.8,35.0,30.11,West,270,0.0,0.0,86,0.00,CLR,,0.01,WeatherDisplay:10.37,2013-03-13 02:18:00,
2013-03-12 22:23:00,38.7,34.8,30.10,West,270,0.0,0.0,86,0.00,CLR,,0.01,WeatherDisplay:10.37,2013-03-13 02:23:00,
2013-03-12 22:28:00,38.5,34.9,30.11,West,270,0.0,0.0,87,0.00,CLR,,0.01,WeatherDisplay:10.37,2013-03-13 02:28:00,
2013-03-12 22:33:00,38.3,34.8,30.11,West,270,0.0,0.0,87,0.00,CLR,,0.01,WeatherDisplay:10.37,2013-03-13 02:33:00,
2013-03-12 22:38:00,38.1,34.9,30.11,West,270,0.0,0.0,88,0.00,CLR,,0.01,WeatherDisplay:10.37,2013-03-13 02:38:00,
2013-03-12 22:43:00,37.9,34.7,30.11,West,270,0.0,0.0,88,0.00,CLR,,0.01,WeatherDisplay:10.37,2013-03-13 02:43:00,
2013-03-12 22:48:00,37.9,34.7,30.11,West,270,0.0,0.0,88,0.00,CLR,,0.01,WeatherDisplay:10.37,2013-03-13 02:48:00,
2013-03-12 22:53:00,37.8,34.8,30.11,West,270,0.0,0.0,89,0.00,CLR,,0.01,WeatherDisplay:10.37,2013-03-13 02:53:00,
2013-03-12 22:58:00,37.8,34.8,30.11,North,0,0.0,0.0,89,0.00,CLR,,0.01,WeatherDisplay:10.37,2013-03-13 02:58:00,
2013-03-12 23:03:00,37.8,34.8,30.11,NE,45,2.7,2.7,89,0.00,CLR,,0.01,WeatherDisplay:10.37,2013-03-13 03:03:00,
2013-03-12 23:08:00,37.6,34.6,30.11,WNW,292,2.3,2.3,89,0.00,CLR,,0.01,WeatherDisplay:10.37,2013-03-13 03:08:00,
2013-03-12 23:13:00,37.4,34.7,30.11,NW,315,0.0,0.0,90,0.00,CLR,,0.01,WeatherDisplay:10.37,2013-03-13 03:13:00,
2013-03-12 23:18:00,37.2,33.4,30.11,NW,315,0.0,0.0,86,0.00,CLR,,0.01,WeatherDisplay:10.37,2013-03-13 03:18:00,
2013-03-12 23:23:00,37.2,33.4,30.11,North,0,1.1,0.0,86,0.00,CLR,,0.01,WeatherDisplay:10.37,2013-03-13 03:23:00,
2013-03-12 23:28:00,37.0,33.5,30.12,North,0,0.0,0.0,87,0.00,CLR,,0.01,WeatherDisplay:10.37,2013-03-13 03:28:00,
2013-03-12 23:33:00,36.9,33.4,30.12,NW,315,0.0,0.0,87,0.00,CLR,,0.01,WeatherDisplay:10.37,2013-03-13 03:33:00,
2013-03-12 23:38:00,36.7,33.2,30.12,NW,315,0.0,0.0,87,0.00,CLR,,0.01,WeatherDisplay:10.37,2013-03-13 03:38:00,
2013-03-12 23:43:00,36.5,33.0,30.11,NW,315,0.0,0.0,87,0.00,CLR,,0.01,WeatherDisplay:10.37,2013-03-13 03:43:00,
2013-03-12 23:48:00,36.5,33.0,30.12,WSW,248,2.3,2.3,87,0.00,CLR,,0.01,WeatherDisplay:10.37,2013-03-13 03:48:00,
2013-03-12 23:53:00,36.3,33.1,30.12,North,0,2.3,0.0,88,0.00,CLR,,0.01,WeatherDisplay:10.37,2013-03-13 03:53:00,
2013-03-12 23:58:00,36.3,33.1,30.12,North,0,0.0,0.0,88,0.00,CLR,,0.01,WeatherDisplay:10.37,2013-03-13 03:58:00,